createdAt,value
2023-02-28T00:01:14.159Z,7.86
2023-02-28T00:03:40.922Z,7.89
2023-02-28T00:06:08.620Z,7.87
2023-02-28T00:08:35.036Z,7.93
2023-02-28T00:11:10.902Z,7.97
2023-02-28T00:13:39.327Z,7.94
2023-02-28T00:16:08.554Z,7.92
2023-02-28T00:18:34.990Z,7.94
2023-02-28T00:21:01.388Z,7.96
2023-02-28T00:23:28.718Z,8.04
2023-02-28T00:25:55.346Z,7.82
2023-02-28T00:28:22.164Z,7.82
2023-02-28T00:30:48.643Z,7.85
2023-02-28T00:33:15.243Z,7.82
2023-02-28T00:35:41.869Z,7.92
2023-02-28T00:38:08.272Z,7.57
2023-02-28T00:40:34.749Z,7.74
2023-02-28T00:43:01.405Z,7.71
2023-02-28T00:45:28.032Z,7.64
2023-02-28T00:47:54.407Z,7.68
2023-02-28T00:50:21.316Z,7.75
2023-02-28T00:52:48.373Z,7.70
2023-02-28T00:55:15.079Z,7.75
2023-02-28T00:57:41.508Z,7.65
2023-02-28T01:00:09.167Z,7.61
2023-02-28T01:02:35.603Z,7.54
2023-02-28T01:05:01.982Z,7.61
2023-02-28T01:07:28.359Z,7.57
2023-02-28T01:09:55.022Z,7.53
2023-02-28T01:12:21.418Z,7.53
2023-02-28T01:14:47.883Z,7.50
2023-02-28T01:17:14.304Z,7.59
2023-02-28T01:19:40.698Z,7.45
2023-02-28T01:22:07.413Z,7.20
2023-02-28T01:24:34.549Z,7.33
2023-02-28T01:27:01.285Z,7.33
2023-02-28T01:29:27.870Z,7.35
2023-02-28T01:31:54.298Z,7.37
2023-02-28T01:34:21.089Z,7.26
2023-02-28T01:36:47.544Z,7.44
2023-02-28T01:39:13.937Z,7.41
2023-02-28T01:41:40.885Z,7.49
2023-02-28T01:44:46.263Z,7.45
2023-02-28T01:47:13.227Z,7.37
2023-02-28T01:49:40.139Z,7.42
2023-02-28T01:52:07.355Z,7.43
2023-02-28T01:54:35.204Z,7.48
2023-02-28T01:57:11.140Z,7.51
2023-02-28T01:59:47.426Z,7.52
2023-02-28T02:02:14.831Z,7.42
2023-02-28T02:04:47.435Z,7.41
2023-02-28T02:07:14.830Z,7.46
2023-02-28T02:09:41.225Z,7.49
2023-02-28T02:12:20.182Z,7.53
2023-02-28T02:14:53.389Z,7.26
2023-02-28T02:17:27.356Z,7.18
2023-02-28T02:20:05.909Z,7.43
2023-02-28T02:23:11.182Z,7.40
2023-02-28T02:25:46.969Z,7.34
2023-02-28T02:28:26.587Z,7.36
2023-02-28T02:31:01.974Z,7.36
2023-02-28T02:33:41.069Z,7.27
2023-02-28T02:36:35.088Z,7.30
2023-02-28T02:39:08.788Z,7.23
2023-02-28T02:41:40.797Z,7.31
2023-02-28T02:44:23.389Z,7.19
2023-02-28T02:46:52.313Z,7.28
2023-02-28T02:49:33.715Z,7.22
2023-02-28T02:52:05.142Z,7.23
2023-02-28T02:54:37.634Z,7.19
2023-02-28T02:57:12.136Z,7.16
2023-02-28T02:59:40.699Z,7.08
2023-02-28T03:02:09.796Z,7.10
2023-02-28T03:04:41.635Z,7.19
2023-02-28T03:07:08.031Z,7.15
2023-02-28T03:09:36.565Z,7.12
2023-02-28T03:12:03.548Z,7.11
2023-02-28T03:15:07.110Z,7.03
2023-02-28T03:17:48.128Z,6.96
2023-02-28T03:20:25.028Z,7.04
2023-02-28T03:23:27.021Z,6.95
2023-02-28T03:26:07.617Z,6.98
2023-02-28T03:28:40.299Z,6.89
2023-02-28T03:31:32.568Z,6.86
2023-02-28T03:34:12.072Z,6.73
2023-02-28T03:36:44.774Z,6.66
2023-02-28T03:39:21.332Z,6.62
2023-02-28T03:41:56.322Z,6.61
2023-02-28T03:44:26.791Z,6.47
2023-02-28T03:47:07.494Z,6.27
2023-02-28T03:49:38.444Z,6.32
2023-02-28T03:52:07.592Z,6.32
2023-02-28T03:54:45.155Z,6.37
2023-02-28T03:57:33.524Z,6.30
2023-02-28T04:00:06.868Z,6.11
2023-02-28T04:02:33.989Z,5.96
2023-02-28T04:05:01.541Z,5.89
2023-02-28T04:07:37.973Z,5.90
2023-02-28T04:10:05.125Z,5.96
2023-02-28T04:12:31.526Z,5.82
2023-02-28T04:14:57.891Z,5.82
2023-02-28T04:17:24.293Z,5.84
2023-02-28T04:19:50.822Z,5.82
2023-02-28T04:22:18.714Z,5.86
2023-02-28T04:24:45.460Z,5.87
2023-02-28T04:27:12.180Z,5.86
2023-02-28T04:29:38.633Z,5.85
2023-02-28T04:32:05.318Z,5.86
2023-02-28T04:34:33.281Z,5.83
2023-02-28T04:37:16.993Z,5.76
2023-02-28T04:39:43.825Z,5.77
2023-02-28T04:42:10.471Z,5.76
2023-02-28T04:44:36.834Z,5.67
2023-02-28T04:47:03.573Z,5.66
2023-02-28T04:49:30.070Z,5.68
2023-02-28T04:51:56.730Z,5.64
2023-02-28T04:54:23.177Z,5.67
2023-02-28T04:56:51.074Z,5.52
2023-02-28T04:59:17.937Z,5.58
2023-02-28T05:01:48.191Z,5.51
2023-02-28T05:04:14.745Z,5.53
2023-02-28T05:06:41.125Z,5.45
2023-02-28T05:09:07.554Z,5.42
2023-02-28T05:11:36.070Z,5.38
2023-02-28T05:14:04.795Z,5.35
2023-02-28T05:16:32.120Z,5.35
2023-02-28T05:18:58.780Z,5.24
2023-02-28T05:21:33.388Z,5.16
2023-02-28T05:24:05.239Z,5.12
2023-02-28T05:26:31.871Z,4.98
2023-02-28T05:28:58.390Z,4.92
2023-02-28T05:31:24.799Z,4.85
2023-02-28T05:33:51.242Z,4.72
2023-02-28T05:36:17.903Z,4.67
2023-02-28T05:38:44.517Z,4.64
2023-02-28T05:41:11.678Z,4.53
2023-02-28T05:43:38.616Z,4.41
2023-02-28T05:46:10.133Z,4.37
2023-02-28T05:48:38.053Z,4.27
2023-02-28T05:51:05.200Z,4.20
2023-02-28T05:53:32.075Z,4.13
2023-02-28T05:55:58.931Z,3.94
2023-02-28T05:58:32.052Z,3.89
2023-02-28T06:00:59.792Z,3.84
2023-02-28T06:03:26.704Z,3.85
2023-02-28T06:05:53.182Z,3.76
2023-02-28T06:08:19.892Z,3.73
2023-02-28T06:10:46.455Z,3.74
2023-02-28T06:13:13.784Z,3.70
2023-02-28T06:15:40.328Z,3.68
2023-02-28T06:18:07.672Z,3.67
2023-02-28T06:20:34.345Z,3.70
2023-02-28T06:23:01.144Z,3.73
2023-02-28T06:25:28.721Z,3.78
2023-02-28T06:27:55.665Z,3.78
2023-02-28T06:30:27.575Z,3.84
2023-02-28T06:32:55.330Z,3.88
2023-02-28T06:35:22.195Z,3.87
2023-02-28T06:37:48.700Z,3.85
2023-02-28T06:40:15.634Z,3.87
2023-02-28T06:42:42.154Z,3.90
2023-02-28T06:45:10.688Z,3.80
2023-02-28T06:47:41.852Z,3.89
2023-02-28T06:50:10.877Z,3.92
2023-02-28T06:52:38.285Z,4.00
2023-02-28T06:55:06.358Z,3.98
2023-02-28T06:57:34.113Z,4.05
2023-02-28T07:00:02.015Z,4.12
2023-02-28T07:02:28.869Z,4.12
2023-02-28T07:04:55.389Z,4.19
2023-02-28T07:07:21.832Z,4.17
2023-02-28T07:09:48.289Z,4.31
2023-02-28T07:12:14.735Z,4.33
2023-02-28T07:14:41.119Z,4.26
2023-02-28T07:17:13.110Z,4.44
2023-02-28T07:19:40.231Z,4.44
2023-02-28T07:22:07.720Z,4.45
2023-02-28T07:24:34.417Z,4.49
2023-02-28T07:27:00.898Z,4.60
2023-02-28T07:29:28.005Z,4.72
2023-02-28T07:31:54.495Z,4.84
2023-02-28T07:34:21.710Z,4.76
2023-02-28T07:36:48.091Z,4.85
2023-02-28T07:39:14.546Z,4.92
2023-02-28T07:41:44.300Z,5.00
2023-02-28T07:44:11.719Z,5.12
2023-02-28T07:46:38.180Z,5.12
2023-02-28T07:49:05.142Z,5.27
2023-02-28T07:51:32.144Z,5.47
2023-02-28T07:53:58.859Z,5.57
2023-02-28T07:56:25.238Z,5.64
2023-02-28T07:58:51.621Z,5.69
2023-02-28T08:01:19.717Z,5.75
2023-02-28T08:03:46.357Z,5.73
2023-02-28T08:06:20.734Z,5.89
2023-02-28T08:08:47.656Z,5.94
2023-02-28T08:11:14.533Z,6.04
2023-02-28T08:13:40.996Z,6.11
2023-02-28T08:16:07.397Z,6.25
2023-02-28T08:18:35.064Z,6.31
2023-02-28T08:21:07.291Z,6.44
2023-02-28T08:23:34.653Z,6.51
2023-02-28T08:26:01.035Z,6.58
2023-02-28T08:28:27.817Z,6.70
2023-02-28T08:30:54.749Z,6.79
2023-02-28T08:33:21.277Z,6.95
2023-02-28T08:35:47.760Z,6.97
2023-02-28T08:38:14.183Z,7.15
2023-02-28T08:40:41.329Z,7.23
2023-02-28T08:43:07.736Z,7.32
2023-02-28T08:45:34.249Z,7.43
2023-02-28T08:48:00.706Z,7.55
2023-02-28T08:50:27.148Z,7.61
2023-02-28T08:52:53.540Z,7.74
2023-02-28T08:55:19.911Z,7.93
2023-02-28T08:57:46.303Z,7.97
2023-02-28T09:00:14.591Z,8.06
2023-02-28T09:02:41.493Z,8.01
2023-02-28T09:05:09.548Z,8.24
2023-02-28T09:07:36.000Z,8.38
2023-02-28T09:10:02.558Z,8.54
2023-02-28T09:12:34.018Z,8.65
2023-02-28T09:15:00.420Z,8.75
2023-02-28T09:17:30.899Z,8.77
2023-02-28T09:19:58.039Z,8.83
2023-02-28T09:22:24.433Z,8.94
2023-02-28T09:24:50.849Z,8.95
2023-02-28T09:27:17.299Z,9.10
2023-02-28T09:29:43.726Z,9.17
2023-02-28T09:32:10.477Z,9.33
2023-02-28T09:34:38.019Z,9.43
2023-02-28T09:37:04.636Z,9.41
2023-02-28T09:39:31.166Z,9.59
2023-02-28T09:41:58.712Z,9.70
2023-02-28T09:44:30.413Z,9.65
2023-02-28T09:47:12.117Z,9.63
2023-02-28T09:49:42.220Z,9.78
2023-02-28T09:52:15.386Z,9.85
2023-02-28T09:54:42.136Z,9.85
2023-02-28T09:57:16.500Z,9.96
2023-02-28T10:00:08.133Z,9.87
2023-02-28T10:02:59.155Z,9.96
2023-02-28T10:05:28.748Z,10.16
2023-02-28T10:08:17.856Z,10.37
2023-02-28T10:10:54.404Z,10.53
2023-02-28T10:13:34.260Z,10.48
2023-02-28T10:16:05.704Z,10.25
2023-02-28T10:18:44.608Z,10.48
2023-02-28T10:21:35.493Z,10.67
2023-02-28T10:24:26.874Z,10.79
2023-02-28T10:26:58.050Z,10.75
2023-02-28T10:29:24.486Z,11.02
2023-02-28T10:31:51.350Z,11.06
2023-02-28T10:34:17.803Z,11.02
2023-02-28T10:36:44.827Z,10.80
2023-02-28T10:39:35.314Z,10.05
2023-02-28T10:42:01.691Z,9.50
2023-02-28T10:44:28.195Z,9.84
2023-02-28T10:46:54.723Z,10.32
2023-02-28T10:49:23.553Z,10.50
2023-02-28T10:51:57.877Z,10.86
2023-02-28T10:54:29.525Z,10.87
2023-02-28T10:57:07.789Z,11.00
2023-02-28T10:59:34.173Z,10.66
2023-02-28T11:02:00.677Z,11.04
2023-02-28T11:04:30.386Z,11.37
2023-02-28T11:07:02.428Z,11.46
2023-02-28T11:09:39.791Z,11.61
2023-02-28T11:12:08.514Z,11.55
2023-02-28T11:14:42.463Z,10.61
2023-02-28T11:17:23.314Z,10.45
2023-02-28T11:19:55.887Z,10.63
2023-02-28T11:22:25.071Z,10.03
2023-02-28T11:24:54.794Z,10.04
2023-02-28T11:27:48.590Z,10.21
2023-02-28T11:30:27.496Z,10.25
2023-02-28T11:32:54.256Z,10.70
2023-02-28T11:35:23.624Z,10.93
2023-02-28T11:37:50.254Z,11.12
2023-02-28T11:40:23.311Z,11.18
2023-02-28T11:43:03.130Z,11.24
2023-02-28T11:45:48.055Z,11.60
2023-02-28T11:48:23.064Z,11.45
2023-02-28T11:51:25.671Z,11.18
2023-02-28T11:54:12.715Z,11.11
2023-02-28T11:56:53.010Z,10.73
2023-02-28T11:59:44.537Z,10.85
2023-02-28T12:02:23.666Z,10.87
2023-02-28T12:05:14.630Z,11.01
2023-02-28T12:07:48.587Z,11.15
2023-02-28T12:10:24.829Z,11.11
2023-02-28T12:13:24.050Z,11.16
2023-02-28T12:16:13.816Z,10.68
2023-02-28T12:18:51.778Z,11.12
2023-02-28T12:21:52.179Z,11.48
2023-02-28T12:24:28.914Z,11.62
2023-02-28T12:26:57.010Z,11.64
2023-02-28T12:29:32.079Z,11.81
2023-02-28T12:32:12.123Z,11.79
2023-02-28T12:34:41.987Z,11.81
2023-02-28T12:37:16.002Z,11.92
2023-02-28T12:39:50.514Z,11.51
2023-02-28T12:42:26.326Z,11.31
2023-02-28T12:44:55.714Z,10.97
2023-02-28T12:47:22.081Z,10.59
2023-02-28T12:49:50.629Z,10.63
2023-02-28T12:52:23.698Z,10.20
2023-02-28T12:55:16.675Z,10.61
2023-02-28T12:58:04.462Z,10.70
2023-02-28T13:00:36.330Z,10.73
2023-02-28T13:03:31.265Z,10.51
2023-02-28T13:06:09.779Z,10.40
2023-02-28T13:09:06.062Z,10.40
2023-02-28T13:11:35.410Z,10.52
2023-02-28T13:14:04.843Z,10.40
2023-02-28T13:16:51.583Z,9.98
2023-02-28T13:19:19.575Z,10.13
2023-02-28T13:21:46.564Z,10.31
2023-02-28T13:24:32.936Z,10.57
2023-02-28T13:27:02.476Z,10.76
2023-02-28T13:29:36.693Z,10.33
2023-02-28T13:32:09.649Z,10.57
2023-02-28T13:34:37.735Z,10.44
2023-02-28T13:37:22.351Z,10.04
2023-02-28T13:39:51.088Z,10.32
2023-02-28T13:42:23.721Z,10.55
2023-02-28T13:45:12.888Z,10.89
2023-02-28T13:47:47.695Z,10.92
2023-02-28T13:50:35.073Z,10.87
2023-02-28T13:53:19.442Z,11.05
2023-02-28T13:56:19.834Z,11.06
2023-02-28T13:58:56.402Z,11.16
2023-02-28T14:01:38.994Z,11.08
2023-02-28T14:05:01.749Z,11.15
2023-02-28T14:07:36.421Z,10.01
2023-02-28T14:10:06.582Z,9.97
2023-02-28T14:12:58.650Z,9.75
2023-02-28T14:15:49.360Z,10.27
2023-02-28T14:18:20.428Z,10.17
2023-02-28T14:20:48.781Z,10.47
2023-02-28T14:23:33.028Z,10.43
2023-02-28T14:26:35.207Z,9.87
2023-02-28T14:29:16.345Z,9.89
2023-02-28T14:32:03.574Z,9.83
2023-02-28T14:34:41.293Z,10.28
2023-02-28T14:37:14.704Z,10.41
2023-02-28T14:39:42.989Z,9.92
2023-02-28T14:42:29.264Z,9.83
2023-02-28T14:44:57.395Z,10.00
2023-02-28T14:47:25.222Z,10.09
2023-02-28T14:49:52.274Z,10.31
2023-02-28T14:52:28.158Z,10.52
2023-02-28T14:54:57.053Z,10.38
2023-02-28T14:57:35.724Z,9.84
2023-02-28T15:00:16.425Z,9.99
2023-02-28T15:02:43.199Z,9.78
2023-02-28T15:05:18.803Z,10.01
2023-02-28T15:07:46.470Z,10.16
2023-02-28T15:10:22.798Z,10.27
2023-02-28T15:12:57.010Z,10.27
2023-02-28T15:15:31.936Z,10.28
2023-02-28T15:18:07.176Z,9.82
2023-02-28T15:20:34.222Z,9.60
2023-02-28T15:23:00.889Z,9.65
2023-02-28T15:25:27.574Z,9.70
2023-02-28T15:27:56.079Z,9.64
2023-02-28T15:30:27.520Z,9.27
2023-02-28T15:33:27.256Z,9.39
2023-02-28T15:36:05.766Z,9.63
2023-02-28T15:38:37.024Z,9.80
2023-02-28T15:41:08.954Z,9.54
2023-02-28T15:43:37.498Z,9.61
2023-02-28T15:46:13.370Z,9.90
2023-02-28T15:48:54.626Z,9.39
2023-02-28T15:51:24.002Z,9.73
2023-02-28T15:53:57.867Z,9.96
2023-02-28T15:56:32.441Z,9.96
2023-02-28T15:59:02.010Z,9.93
2023-02-28T16:01:38.948Z,9.68
2023-02-28T16:04:12.204Z,9.61
2023-02-28T16:06:43.481Z,9.68
2023-02-28T16:09:12.386Z,9.76
2023-02-28T16:11:45.692Z,9.76
2023-02-28T16:14:18.653Z,9.45
2023-02-28T16:16:52.641Z,9.56
2023-02-28T16:19:19.471Z,9.34
2023-02-28T16:21:46.918Z,9.31
2023-02-28T16:24:13.440Z,9.43
2023-02-28T16:26:41.333Z,9.34
2023-02-28T16:29:07.982Z,9.45
2023-02-28T16:31:37.195Z,9.57
2023-02-28T16:34:04.067Z,9.69
2023-02-28T16:36:31.255Z,9.51
2023-02-28T16:38:58.032Z,9.41
2023-02-28T16:41:28.967Z,9.31
2023-02-28T16:44:01.025Z,9.19
2023-02-28T16:46:37.107Z,9.19
2023-02-28T16:49:03.526Z,8.88
2023-02-28T16:51:30.640Z,8.90
2023-02-28T16:53:57.779Z,8.94
2023-02-28T16:56:25.849Z,9.02
2023-02-28T16:58:52.648Z,8.85
2023-02-28T17:01:22.848Z,8.72
2023-02-28T17:03:50.048Z,8.56
2023-02-28T17:06:34.717Z,8.42
2023-02-28T17:09:01.276Z,8.25
2023-02-28T17:11:28.171Z,8.17
2023-02-28T17:13:54.944Z,8.14
2023-02-28T17:16:29.607Z,8.21
2023-02-28T17:18:59.444Z,8.14
2023-02-28T17:21:25.912Z,8.05
2023-02-28T17:23:52.385Z,7.94
2023-02-28T17:26:25.815Z,7.86
2023-02-28T17:28:53.372Z,7.75
2023-02-28T17:31:19.840Z,7.64
2023-02-28T17:33:46.272Z,7.59
2023-02-28T17:36:19.211Z,7.54
2023-02-28T17:38:45.606Z,7.48
2023-02-28T17:41:12.277Z,7.53
2023-02-28T17:43:38.695Z,7.68
2023-02-28T17:46:06.542Z,7.70
2023-02-28T17:48:36.931Z,7.66
2023-02-28T17:51:03.429Z,7.56
2023-02-28T17:53:29.886Z,7.43
2023-02-28T17:55:56.264Z,7.36
2023-02-28T17:58:22.672Z,7.29
2023-02-28T18:00:54.547Z,7.18
2023-02-28T18:03:21.582Z,7.16
2023-02-28T18:05:48.560Z,7.12
2023-02-28T18:08:15.646Z,7.10
2023-02-28T18:10:42.136Z,7.13
2023-02-28T18:13:08.685Z,7.03
2023-02-28T18:15:35.910Z,6.97
2023-02-28T18:18:03.407Z,6.89
2023-02-28T18:20:29.808Z,6.92
2023-02-28T18:22:56.231Z,6.93
2023-02-28T18:25:23.365Z,6.80
2023-02-28T18:27:58.977Z,6.63
2023-02-28T18:30:31.660Z,6.42
2023-02-28T18:32:59.493Z,6.25
2023-02-28T18:35:35.125Z,6.04
2023-02-28T18:38:07.184Z,6.13
2023-02-28T18:40:33.816Z,6.15
2023-02-28T18:43:00.517Z,6.12
2023-02-28T18:45:27.668Z,6.27
2023-02-28T18:47:54.068Z,6.08
2023-02-28T18:50:20.776Z,5.92
2023-02-28T18:52:47.386Z,5.79
2023-02-28T18:55:18.632Z,5.80
2023-02-28T18:57:46.870Z,5.69
2023-02-28T19:00:15.062Z,5.60
2023-02-28T19:02:42.657Z,5.64
2023-02-28T19:05:09.579Z,5.58
2023-02-28T19:07:36.025Z,5.60
2023-02-28T19:10:02.546Z,5.52
2023-02-28T19:12:28.938Z,5.52
2023-02-28T19:14:55.306Z,5.62
2023-02-28T19:17:21.679Z,5.63
2023-02-28T19:19:48.070Z,5.64
2023-02-28T19:22:14.495Z,5.64
2023-02-28T19:24:40.886Z,5.64
2023-02-28T19:27:08.393Z,5.61
2023-02-28T19:29:34.797Z,5.49
2023-02-28T19:32:01.284Z,5.34
2023-02-28T19:34:27.771Z,5.44
2023-02-28T19:36:54.159Z,5.50
2023-02-28T19:39:20.526Z,5.47
2023-02-28T19:41:46.893Z,5.32
2023-02-28T19:44:13.282Z,5.13
2023-02-28T19:46:39.682Z,5.00
2023-02-28T19:49:06.064Z,5.23
2023-02-28T19:51:34.200Z,5.30
2023-02-28T19:54:00.590Z,5.54
2023-02-28T19:56:26.970Z,5.72
2023-02-28T19:58:53.407Z,5.88
2023-02-28T20:01:20.111Z,5.86
2023-02-28T20:03:51.633Z,5.54
2023-02-28T20:06:18.435Z,5.23
2023-02-28T20:08:44.848Z,5.05
2023-02-28T20:11:15.342Z,4.85
2023-02-28T20:13:43.519Z,4.70
2023-02-28T20:16:11.335Z,4.60
2023-02-28T20:18:38.709Z,4.63
2023-02-28T20:21:05.380Z,4.53
2023-02-28T20:23:31.831Z,4.50
2023-02-28T20:26:01.923Z,4.40
2023-02-28T20:28:28.371Z,4.25
2023-02-28T20:30:54.825Z,4.25
2023-02-28T20:33:21.571Z,4.40
2023-02-28T20:35:49.532Z,4.24
2023-02-28T20:38:15.998Z,4.33
2023-02-28T20:40:42.421Z,4.37
2023-02-28T20:43:08.993Z,4.42
2023-02-28T20:45:35.984Z,4.43
2023-02-28T20:48:02.445Z,4.51
2023-02-28T20:50:28.867Z,4.54
2023-02-28T20:52:56.419Z,4.58
2023-02-28T20:55:22.825Z,4.63
2023-02-28T20:57:50.405Z,4.62
2023-02-28T21:00:20.417Z,4.57
2023-02-28T21:02:46.863Z,4.55
2023-02-28T21:05:13.615Z,4.55
2023-02-28T21:07:39.995Z,4.64
2023-02-28T21:10:08.118Z,4.70
2023-02-28T21:12:35.859Z,4.67
2023-02-28T21:15:02.284Z,4.75
2023-02-28T21:17:29.167Z,4.74
2023-02-28T21:19:55.622Z,4.57
2023-02-28T21:22:22.235Z,4.43
2023-02-28T21:24:48.634Z,4.34
2023-02-28T21:27:15.590Z,4.17
2023-02-28T21:29:41.998Z,4.15
2023-02-28T21:32:08.394Z,4.11
2023-02-28T21:34:34.790Z,4.12
2023-02-28T21:37:01.149Z,3.97
2023-02-28T21:39:29.907Z,3.81
2023-02-28T21:41:57.275Z,3.62
2023-02-28T21:44:23.937Z,3.57
2023-02-28T21:46:54.769Z,3.50
2023-02-28T21:49:21.290Z,3.42
2023-02-28T21:51:47.678Z,3.38
2023-02-28T21:54:14.395Z,3.33
2023-02-28T21:56:41.246Z,3.27
2023-02-28T21:59:09.607Z,3.18
2023-02-28T22:01:38.319Z,3.17
2023-02-28T22:04:09.397Z,3.10
2023-02-28T22:06:39.308Z,3.03
2023-02-28T22:09:07.684Z,3.09
2023-02-28T22:11:34.701Z,3.15
2023-02-28T22:14:01.385Z,3.25
2023-02-28T22:16:33.227Z,3.32
2023-02-28T22:19:06.373Z,3.28
2023-02-28T22:21:32.940Z,3.23
2023-02-28T22:23:59.756Z,3.23
2023-02-28T22:26:26.202Z,3.13
2023-02-28T22:28:52.576Z,3.10
2023-02-28T22:31:24.700Z,3.08
2023-02-28T22:33:53.998Z,3.02
2023-02-28T22:36:21.377Z,3.05
2023-02-28T22:38:50.742Z,3.08
2023-02-28T22:41:18.492Z,3.07
2023-02-28T22:43:45.018Z,3.01
2023-02-28T22:46:13.369Z,2.91
2023-02-28T22:48:39.839Z,2.87
2023-02-28T22:51:15.016Z,2.86
2023-02-28T22:53:43.305Z,2.80
2023-02-28T22:56:11.028Z,2.77
2023-02-28T22:58:37.812Z,2.76
2023-02-28T23:01:08.854Z,2.76
2023-02-28T23:03:35.529Z,2.76
2023-02-28T23:06:04.243Z,2.77
2023-02-28T23:08:30.614Z,2.74
2023-02-28T23:10:57.091Z,2.69
2023-02-28T23:13:23.529Z,2.75
2023-02-28T23:15:49.897Z,2.75
2023-02-28T23:18:16.558Z,2.77
2023-02-28T23:20:42.993Z,2.71
2023-02-28T23:23:10.167Z,2.65
2023-02-28T23:25:40.332Z,2.57
2023-02-28T23:28:07.517Z,2.56
2023-02-28T23:30:34.426Z,2.56
2023-02-28T23:33:01.298Z,2.64
2023-02-28T23:35:27.747Z,2.58
2023-02-28T23:37:57.323Z,2.52
2023-02-28T23:40:23.720Z,2.47
2023-02-28T23:42:51.030Z,2.50
2023-02-28T23:45:18.513Z,2.53
2023-02-28T23:47:45.434Z,2.57
2023-02-28T23:50:12.249Z,2.58
2023-02-28T23:52:38.649Z,2.54
2023-02-28T23:55:05.766Z,2.56
2023-02-28T23:57:32.143Z,2.60
2023-02-28T23:59:58.566Z,2.59
